sensor_id;sensor_type;location;lat;lon;timestamp;P1;durP1;ratioP1;P2;durP2;ratioP2
43990;SDS011;29654;50.784;20.604;2024-03-06T00:03:32;40.85;;;25.33;;
43990;SDS011;29654;50.784;20.604;2024-03-06T00:08:35;37.95;;;26.00;;
43990;SDS011;29654;50.784;20.604;2024-03-06T00:13:40;41.17;;;25.48;;
43990;SDS011;29654;50.784;20.604;2024-03-06T00:18:43;41.67;;;26.23;;
43990;SDS011;29654;50.784;20.604;2024-03-06T00:23:45;38.88;;;26.13;;
43990;SDS011;29654;50.784;20.604;2024-03-06T00:28:49;39.30;;;25.98;;
43990;SDS011;29654;50.784;20.604;2024-03-06T00:33:52;41.58;;;25.88;;
43990;SDS011;29654;50.784;20.604;2024-03-06T00:38:55;37.75;;;24.75;;
43990;SDS011;29654;50.784;20.604;2024-03-06T00:44:02;39.85;;;26.48;;
43990;SDS011;29654;50.784;20.604;2024-03-06T00:49:06;38.58;;;25.67;;
43990;SDS011;29654;50.784;20.604;2024-03-06T00:54:09;38.17;;;24.83;;
43990;SDS011;29654;50.784;20.604;2024-03-06T00:59:14;36.38;;;23.85;;
43990;SDS011;29654;50.784;20.604;2024-03-06T01:04:18;34.03;;;23.60;;
43990;SDS011;29654;50.784;20.604;2024-03-06T01:09:22;34.55;;;22.83;;
43990;SDS011;29654;50.784;20.604;2024-03-06T01:14:29;36.00;;;23.60;;
43990;SDS011;29654;50.784;20.604;2024-03-06T01:19:32;33.10;;;23.23;;
43990;SDS011;29654;50.784;20.604;2024-03-06T01:24:35;34.35;;;23.45;;
43990;SDS011;29654;50.784;20.604;2024-03-06T01:29:42;39.05;;;24.23;;
43990;SDS011;29654;50.784;20.604;2024-03-06T01:34:47;36.75;;;23.98;;
43990;SDS011;29654;50.784;20.604;2024-03-06T01:39:51;33.70;;;23.60;;
43990;SDS011;29654;50.784;20.604;2024-03-06T01:44:55;32.85;;;22.50;;
43990;SDS011;29654;50.784;20.604;2024-03-06T01:49:58;31.83;;;22.50;;
43990;SDS011;29654;50.784;20.604;2024-03-06T01:55:02;32.03;;;22.98;;
43990;SDS011;29654;50.784;20.604;2024-03-06T02:00:08;32.55;;;22.73;;
43990;SDS011;29654;50.784;20.604;2024-03-06T02:05:14;33.50;;;22.80;;
43990;SDS011;29654;50.784;20.604;2024-03-06T02:10:17;37.88;;;24.08;;
43990;SDS011;29654;50.784;20.604;2024-03-06T02:15:21;36.88;;;23.15;;
43990;SDS011;29654;50.784;20.604;2024-03-06T02:20:25;34.53;;;23.77;;
43990;SDS011;29654;50.784;20.604;2024-03-06T02:25:28;35.10;;;23.58;;
43990;SDS011;29654;50.784;20.604;2024-03-06T02:30:31;35.08;;;23.48;;
43990;SDS011;29654;50.784;20.604;2024-03-06T02:35:38;33.53;;;22.17;;
43990;SDS011;29654;50.784;20.604;2024-03-06T02:40:42;36.83;;;22.42;;
43990;SDS011;29654;50.784;20.604;2024-03-06T02:45:45;31.88;;;21.52;;
43990;SDS011;29654;50.784;20.604;2024-03-06T02:50:50;30.48;;;21.85;;
43990;SDS011;29654;50.784;20.604;2024-03-06T02:55:53;31.20;;;21.60;;
43990;SDS011;29654;50.784;20.604;2024-03-06T03:00:55;33.88;;;23.33;;
43990;SDS011;29654;50.784;20.604;2024-03-06T03:06:00;34.33;;;23.83;;
43990;SDS011;29654;50.784;20.604;2024-03-06T03:11:03;35.47;;;23.17;;
43990;SDS011;29654;50.784;20.604;2024-03-06T03:16:06;36.03;;;22.95;;
43990;SDS011;29654;50.784;20.604;2024-03-06T03:21:10;30.38;;;20.38;;
43990;SDS011;29654;50.784;20.604;2024-03-06T03:26:13;35.50;;;22.13;;
43990;SDS011;29654;50.784;20.604;2024-03-06T03:31:16;37.60;;;24.70;;
43990;SDS011;29654;50.784;20.604;2024-03-06T03:36:20;34.42;;;21.85;;
43990;SDS011;29654;50.784;20.604;2024-03-06T03:41:23;35.90;;;22.65;;
43990;SDS011;29654;50.784;20.604;2024-03-06T03:46:26;37.08;;;22.45;;
43990;SDS011;29654;50.784;20.604;2024-03-06T03:51:30;33.97;;;21.70;;
43990;SDS011;29654;50.784;20.604;2024-03-06T03:56:33;35.05;;;21.65;;
43990;SDS011;29654;50.784;20.604;2024-03-06T04:01:36;35.75;;;22.08;;
43990;SDS011;29654;50.784;20.604;2024-03-06T04:06:41;31.95;;;19.42;;
43990;SDS011;29654;50.784;20.604;2024-03-06T04:11:44;46.42;;;26.25;;
43990;SDS011;29654;50.784;20.604;2024-03-06T04:16:47;31.88;;;21.30;;
43990;SDS011;29654;50.784;20.604;2024-03-06T04:21:51;31.20;;;21.33;;
43990;SDS011;29654;50.784;20.604;2024-03-06T04:26:54;32.88;;;21.98;;
43990;SDS011;29654;50.784;20.604;2024-03-06T04:31:58;30.90;;;21.13;;
43990;SDS011;29654;50.784;20.604;2024-03-06T04:37:02;31.75;;;20.35;;
43990;SDS011;29654;50.784;20.604;2024-03-06T04:42:05;33.22;;;20.70;;
43990;SDS011;29654;50.784;20.604;2024-03-06T04:47:08;35.92;;;21.30;;
43990;SDS011;29654;50.784;20.604;2024-03-06T04:52:12;33.83;;;20.73;;
43990;SDS011;29654;50.784;20.604;2024-03-06T04:57:15;30.13;;;20.80;;
43990;SDS011;29654;50.784;20.604;2024-03-06T05:02:17;28.75;;;18.50;;
43990;SDS011;29654;50.784;20.604;2024-03-06T05:07:22;30.48;;;20.15;;
43990;SDS011;29654;50.784;20.604;2024-03-06T05:12:25;30.65;;;19.20;;
43990;SDS011;29654;50.784;20.604;2024-03-06T05:17:29;30.73;;;20.70;;
43990;SDS011;29654;50.784;20.604;2024-03-06T05:22:34;27.25;;;19.25;;
43990;SDS011;29654;50.784;20.604;2024-03-06T05:27:36;30.73;;;20.88;;
43990;SDS011;29654;50.784;20.604;2024-03-06T05:32:39;27.17;;;18.42;;
43990;SDS011;29654;50.784;20.604;2024-03-06T05:37:44;26.27;;;18.48;;
43990;SDS011;29654;50.784;20.604;2024-03-06T05:42:47;25.08;;;17.95;;
43990;SDS011;29654;50.784;20.604;2024-03-06T05:47:50;21.17;;;15.23;;
43990;SDS011;29654;50.784;20.604;2024-03-06T05:52:54;20.25;;;14.63;;
43990;SDS011;29654;50.784;20.604;2024-03-06T05:57:57;20.50;;;14.48;;
43990;SDS011;29654;50.784;20.604;2024-03-06T06:03:00;21.77;;;16.05;;
43990;SDS011;29654;50.784;20.604;2024-03-06T06:08:05;19.08;;;13.70;;
43990;SDS011;29654;50.784;20.604;2024-03-06T06:13:08;18.27;;;14.63;;
43990;SDS011;29654;50.784;20.604;2024-03-06T06:18:11;18.52;;;13.70;;
43990;SDS011;29654;50.784;20.604;2024-03-06T06:23:15;20.85;;;15.00;;
43990;SDS011;29654;50.784;20.604;2024-03-06T06:28:18;22.83;;;15.55;;
43990;SDS011;29654;50.784;20.604;2024-03-06T06:33:21;29.15;;;18.27;;
43990;SDS011;29654;50.784;20.604;2024-03-06T06:38:25;22.88;;;16.05;;
43990;SDS011;29654;50.784;20.604;2024-03-06T06:43:28;20.23;;;15.85;;
43990;SDS011;29654;50.784;20.604;2024-03-06T06:48:31;22.38;;;16.25;;
43990;SDS011;29654;50.784;20.604;2024-03-06T06:53:37;23.17;;;16.73;;
43990;SDS011;29654;50.784;20.604;2024-03-06T06:58:43;25.05;;;18.35;;
43990;SDS011;29654;50.784;20.604;2024-03-06T07:03:46;23.92;;;17.20;;
43990;SDS011;29654;50.784;20.604;2024-03-06T07:08:50;22.73;;;18.23;;
43990;SDS011;29654;50.784;20.604;2024-03-06T07:13:53;20.33;;;16.30;;
43990;SDS011;29654;50.784;20.604;2024-03-06T07:18:56;20.83;;;16.05;;
43990;SDS011;29654;50.784;20.604;2024-03-06T07:24:01;23.00;;;17.17;;
43990;SDS011;29654;50.784;20.604;2024-03-06T07:29:04;23.35;;;17.00;;
43990;SDS011;29654;50.784;20.604;2024-03-06T07:34:13;22.30;;;16.80;;
43990;SDS011;29654;50.784;20.604;2024-03-06T07:39:18;19.85;;;16.08;;
43990;SDS011;29654;50.784;20.604;2024-03-06T07:44:22;20.35;;;15.63;;
43990;SDS011;29654;50.784;20.604;2024-03-06T07:49:24;19.27;;;15.15;;
43990;SDS011;29654;50.784;20.604;2024-03-06T07:54:29;16.88;;;14.20;;
43990;SDS011;29654;50.784;20.604;2024-03-06T07:59:33;18.52;;;14.57;;
43990;SDS011;29654;50.784;20.604;2024-03-06T08:04:36;17.38;;;13.60;;
43990;SDS011;29654;50.784;20.604;2024-03-06T08:09:40;15.45;;;11.60;;
43990;SDS011;29654;50.784;20.604;2024-03-06T08:14:43;16.35;;;12.65;;
43990;SDS011;29654;50.784;20.604;2024-03-06T08:19:46;16.25;;;13.27;;
43990;SDS011;29654;50.784;20.604;2024-03-06T08:24:50;16.85;;;13.52;;
43990;SDS011;29654;50.784;20.604;2024-03-06T08:29:53;17.88;;;13.77;;
43990;SDS011;29654;50.784;20.604;2024-03-06T08:34:56;14.90;;;13.30;;
43990;SDS011;29654;50.784;20.604;2024-03-06T08:40:00;17.88;;;15.18;;
43990;SDS011;29654;50.784;20.604;2024-03-06T08:45:04;20.77;;;15.13;;
43990;SDS011;29654;50.784;20.604;2024-03-06T08:50:08;17.73;;;15.15;;
43990;SDS011;29654;50.784;20.604;2024-03-06T08:55:13;22.45;;;15.63;;
43990;SDS011;29654;50.784;20.604;2024-03-06T09:00:16;20.80;;;15.82;;
43990;SDS011;29654;50.784;20.604;2024-03-06T09:05:19;20.95;;;15.55;;
43990;SDS011;29654;50.784;20.604;2024-03-06T09:10:24;19.52;;;15.25;;
43990;SDS011;29654;50.784;20.604;2024-03-06T09:15:26;18.77;;;14.93;;
43990;SDS011;29654;50.784;20.604;2024-03-06T09:20:29;18.38;;;15.38;;
43990;SDS011;29654;50.784;20.604;2024-03-06T09:25:33;18.70;;;15.32;;
43990;SDS011;29654;50.784;20.604;2024-03-06T09:30:36;19.80;;;16.08;;
43990;SDS011;29654;50.784;20.604;2024-03-06T09:35:39;21.35;;;17.55;;
43990;SDS011;29654;50.784;20.604;2024-03-06T09:40:46;20.50;;;16.52;;
43990;SDS011;29654;50.784;20.604;2024-03-06T09:45:50;19.40;;;15.90;;
43990;SDS011;29654;50.784;20.604;2024-03-06T09:50:53;19.17;;;14.80;;
43990;SDS011;29654;50.784;20.604;2024-03-06T09:56:03;19.08;;;15.20;;
43990;SDS011;29654;50.784;20.604;2024-03-06T10:01:08;17.13;;;13.90;;
43990;SDS011;29654;50.784;20.604;2024-03-06T10:06:13;17.02;;;15.15;;
43990;SDS011;29654;50.784;20.604;2024-03-06T10:11:18;19.38;;;15.68;;
43990;SDS011;29654;50.784;20.604;2024-03-06T10:16:20;18.13;;;15.05;;
43990;SDS011;29654;50.784;20.604;2024-03-06T10:21:29;15.02;;;13.05;;
43990;SDS011;29654;50.784;20.604;2024-03-06T10:26:35;14.45;;;12.93;;
43990;SDS011;29654;50.784;20.604;2024-03-06T10:31:37;13.27;;;11.80;;
43990;SDS011;29654;50.784;20.604;2024-03-06T10:36:41;12.65;;;11.30;;
43990;SDS011;29654;50.784;20.604;2024-03-06T10:41:46;12.35;;;10.98;;
43990;SDS011;29654;50.784;20.604;2024-03-06T10:46:55;14.95;;;12.75;;
43990;SDS011;29654;50.784;20.604;2024-03-06T10:52:01;16.52;;;14.10;;
43990;SDS011;29654;50.784;20.604;2024-03-06T10:57:08;15.75;;;13.95;;
43990;SDS011;29654;50.784;20.604;2024-03-06T11:02:13;13.90;;;11.57;;
43990;SDS011;29654;50.784;20.604;2024-03-06T11:07:16;12.40;;;10.95;;
43990;SDS011;29654;50.784;20.604;2024-03-06T11:12:33;13.23;;;11.15;;
43990;SDS011;29654;50.784;20.604;2024-03-06T11:17:38;12.57;;;11.30;;
43990;SDS011;29654;50.784;20.604;2024-03-06T11:28:22;15.75;;;12.45;;
43990;SDS011;29654;50.784;20.604;2024-03-06T11:33:33;16.55;;;12.25;;
43990;SDS011;29654;50.784;20.604;2024-03-06T11:38:38;13.98;;;12.52;;
43990;SDS011;29654;50.784;20.604;2024-03-06T11:43:46;14.23;;;12.77;;
43990;SDS011;29654;50.784;20.604;2024-03-06T11:48:53;14.60;;;12.85;;
43990;SDS011;29654;50.784;20.604;2024-03-06T11:53:58;15.88;;;13.13;;
43990;SDS011;29654;50.784;20.604;2024-03-06T11:59:03;17.13;;;13.85;;
43990;SDS011;29654;50.784;20.604;2024-03-06T12:04:07;13.20;;;11.88;;
43990;SDS011;29654;50.784;20.604;2024-03-06T12:09:10;13.57;;;12.23;;
43990;SDS011;29654;50.784;20.604;2024-03-06T12:14:14;13.43;;;11.82;;
43990;SDS011;29654;50.784;20.604;2024-03-06T12:19:19;13.00;;;11.65;;
43990;SDS011;29654;50.784;20.604;2024-03-06T12:24:22;13.30;;;12.00;;
43990;SDS011;29654;50.784;20.604;2024-03-06T12:29:27;15.57;;;12.25;;
43990;SDS011;29654;50.784;20.604;2024-03-06T12:34:32;12.90;;;11.23;;
43990;SDS011;29654;50.784;20.604;2024-03-06T12:39:35;15.15;;;11.68;;
43990;SDS011;29654;50.784;20.604;2024-03-06T12:44:40;15.68;;;13.68;;
43990;SDS011;29654;50.784;20.604;2024-03-06T12:49:43;15.82;;;14.13;;
43990;SDS011;29654;50.784;20.604;2024-03-06T12:54:46;17.67;;;13.55;;
43990;SDS011;29654;50.784;20.604;2024-03-06T12:59:51;17.58;;;13.98;;
43990;SDS011;29654;50.784;20.604;2024-03-06T13:04:54;16.02;;;14.32;;
43990;SDS011;29654;50.784;20.604;2024-03-06T13:09:57;16.05;;;14.20;;
43990;SDS011;29654;50.784;20.604;2024-03-06T13:15:01;17.08;;;14.77;;
43990;SDS011;29654;50.784;20.604;2024-03-06T13:20:05;21.85;;;15.68;;
43990;SDS011;29654;50.784;20.604;2024-03-06T13:25:12;20.40;;;15.73;;
43990;SDS011;29654;50.784;20.604;2024-03-06T13:30:16;20.73;;;16.65;;
43990;SDS011;29654;50.784;20.604;2024-03-06T13:35:19;19.60;;;16.70;;
43990;SDS011;29654;50.784;20.604;2024-03-06T13:40:22;22.42;;;18.60;;
43990;SDS011;29654;50.784;20.604;2024-03-06T13:45:28;24.33;;;17.50;;
43990;SDS011;29654;50.784;20.604;2024-03-06T13:50:32;23.30;;;17.48;;
43990;SDS011;29654;50.784;20.604;2024-03-06T13:55:35;23.63;;;17.58;;
43990;SDS011;29654;50.784;20.604;2024-03-06T14:00:40;20.55;;;16.45;;
43990;SDS011;29654;50.784;20.604;2024-03-06T14:05:44;17.23;;;13.65;;
43990;SDS011;29654;50.784;20.604;2024-03-06T14:10:47;21.17;;;16.40;;
43990;SDS011;29654;50.784;20.604;2024-03-06T14:15:51;21.58;;;16.08;;
43990;SDS011;29654;50.784;20.604;2024-03-06T14:20:54;23.08;;;16.60;;
43990;SDS011;29654;50.784;20.604;2024-03-06T14:25:57;20.17;;;14.55;;
43990;SDS011;29654;50.784;20.604;2024-03-06T14:31:05;12.80;;;10.25;;
43990;SDS011;29654;50.784;20.604;2024-03-06T14:36:08;9.00;;;8.10;;
43990;SDS011;29654;50.784;20.604;2024-03-06T14:41:11;8.48;;;7.63;;
43990;SDS011;29654;50.784;20.604;2024-03-06T14:46:19;10.98;;;8.98;;
43990;SDS011;29654;50.784;20.604;2024-03-06T14:51:25;10.10;;;8.35;;
43990;SDS011;29654;50.784;20.604;2024-03-06T14:56:27;9.43;;;8.45;;
43990;SDS011;29654;50.784;20.604;2024-03-06T15:01:32;9.00;;;7.95;;
43990;SDS011;29654;50.784;20.604;2024-03-06T15:06:37;8.70;;;7.78;;
43990;SDS011;29654;50.784;20.604;2024-03-06T15:11:40;9.55;;;6.68;;
43990;SDS011;29654;50.784;20.604;2024-03-06T15:16:45;7.18;;;6.38;;
43990;SDS011;29654;50.784;20.604;2024-03-06T15:21:48;7.15;;;6.13;;
43990;SDS011;29654;50.784;20.604;2024-03-06T15:26:50;9.48;;;6.90;;
43990;SDS011;29654;50.784;20.604;2024-03-06T15:31:56;7.57;;;5.63;;
43990;SDS011;29654;50.784;20.604;2024-03-06T15:37:00;6.55;;;5.78;;
43990;SDS011;29654;50.784;20.604;2024-03-06T15:42:04;7.15;;;5.63;;
43990;SDS011;29654;50.784;20.604;2024-03-06T15:47:09;6.35;;;5.75;;
43990;SDS011;29654;50.784;20.604;2024-03-06T15:52:12;5.22;;;4.72;;
43990;SDS011;29654;50.784;20.604;2024-03-06T15:57:16;7.20;;;5.38;;
43990;SDS011;29654;50.784;20.604;2024-03-06T16:02:20;6.05;;;5.22;;
43990;SDS011;29654;50.784;20.604;2024-03-06T16:07:25;6.95;;;5.40;;
43990;SDS011;29654;50.784;20.604;2024-03-06T16:12:28;7.25;;;6.03;;
43990;SDS011;29654;50.784;20.604;2024-03-06T16:17:34;7.78;;;5.47;;
43990;SDS011;29654;50.784;20.604;2024-03-06T16:22:37;7.15;;;5.88;;
43990;SDS011;29654;50.784;20.604;2024-03-06T16:27:40;7.68;;;6.65;;
43990;SDS011;29654;50.784;20.604;2024-03-06T16:32:44;8.43;;;6.72;;
43990;SDS011;29654;50.784;20.604;2024-03-06T16:37:47;7.80;;;6.03;;
43990;SDS011;29654;50.784;20.604;2024-03-06T16:42:51;7.32;;;6.10;;
43990;SDS011;29654;50.784;20.604;2024-03-06T16:47:55;8.95;;;6.43;;
43990;SDS011;29654;50.784;20.604;2024-03-06T16:53:00;8.30;;;6.28;;
43990;SDS011;29654;50.784;20.604;2024-03-06T16:58:06;8.50;;;7.60;;
43990;SDS011;29654;50.784;20.604;2024-03-06T17:03:10;7.93;;;7.13;;
43990;SDS011;29654;50.784;20.604;2024-03-06T17:08:13;16.10;;;10.35;;
43990;SDS011;29654;50.784;20.604;2024-03-06T17:13:17;9.43;;;8.43;;
43990;SDS011;29654;50.784;20.604;2024-03-06T17:18:21;11.55;;;9.23;;
43990;SDS011;29654;50.784;20.604;2024-03-06T17:23:24;16.65;;;12.15;;
43990;SDS011;29654;50.784;20.604;2024-03-06T17:28:27;22.75;;;14.18;;
43990;SDS011;29654;50.784;20.604;2024-03-06T17:33:31;18.63;;;12.95;;
43990;SDS011;29654;50.784;20.604;2024-03-06T17:38:34;16.83;;;11.57;;
43990;SDS011;29654;50.784;20.604;2024-03-06T17:43:40;18.50;;;12.43;;
43990;SDS011;29654;50.784;20.604;2024-03-06T17:48:44;19.48;;;12.45;;
43990;SDS011;29654;50.784;20.604;2024-03-06T17:53:47;17.77;;;12.02;;
43990;SDS011;29654;50.784;20.604;2024-03-06T17:58:49;19.33;;;12.60;;
43990;SDS011;29654;50.784;20.604;2024-03-06T18:03:54;17.38;;;13.73;;
43990;SDS011;29654;50.784;20.604;2024-03-06T18:08:57;19.67;;;13.10;;
43990;SDS011;29654;50.784;20.604;2024-03-06T18:14:00;26.55;;;15.30;;
43990;SDS011;29654;50.784;20.604;2024-03-06T18:19:05;22.27;;;14.02;;
43990;SDS011;29654;50.784;20.604;2024-03-06T18:24:08;23.42;;;16.13;;
43990;SDS011;29654;50.784;20.604;2024-03-06T18:29:14;22.15;;;15.02;;
43990;SDS011;29654;50.784;20.604;2024-03-06T18:34:18;23.70;;;16.40;;
43990;SDS011;29654;50.784;20.604;2024-03-06T18:39:22;24.73;;;16.30;;
43990;SDS011;29654;50.784;20.604;2024-03-06T18:44:25;25.02;;;16.48;;
43990;SDS011;29654;50.784;20.604;2024-03-06T18:49:32;22.42;;;14.75;;
43990;SDS011;29654;50.784;20.604;2024-03-06T18:54:36;26.65;;;18.77;;
43990;SDS011;29654;50.784;20.604;2024-03-06T18:59:41;34.08;;;21.05;;
43990;SDS011;29654;50.784;20.604;2024-03-06T19:04:46;31.10;;;19.23;;
43990;SDS011;29654;50.784;20.604;2024-03-06T19:09:49;26.23;;;19.20;;
43990;SDS011;29654;50.784;20.604;2024-03-06T19:14:52;24.15;;;17.25;;
43990;SDS011;29654;50.784;20.604;2024-03-06T19:19:57;25.88;;;18.02;;
43990;SDS011;29654;50.784;20.604;2024-03-06T19:25:00;26.02;;;18.80;;
43990;SDS011;29654;50.784;20.604;2024-03-06T19:30:05;29.60;;;21.50;;
43990;SDS011;29654;50.784;20.604;2024-03-06T19:35:11;31.15;;;19.02;;
43990;SDS011;29654;50.784;20.604;2024-03-06T19:40:14;25.90;;;18.50;;
43990;SDS011;29654;50.784;20.604;2024-03-06T19:45:17;25.40;;;18.38;;
43990;SDS011;29654;50.784;20.604;2024-03-06T19:50:22;28.00;;;19.08;;
43990;SDS011;29654;50.784;20.604;2024-03-06T19:55:25;28.15;;;17.83;;
43990;SDS011;29654;50.784;20.604;2024-03-06T20:00:30;30.33;;;19.67;;
43990;SDS011;29654;50.784;20.604;2024-03-06T20:05:35;25.73;;;18.23;;
43990;SDS011;29654;50.784;20.604;2024-03-06T20:10:38;25.50;;;18.48;;
43990;SDS011;29654;50.784;20.604;2024-03-06T20:15:42;24.65;;;17.98;;
43990;SDS011;29654;50.784;20.604;2024-03-06T20:20:46;28.50;;;18.98;;
43990;SDS011;29654;50.784;20.604;2024-03-06T20:25:49;25.33;;;17.92;;
43990;SDS011;29654;50.784;20.604;2024-03-06T20:30:52;30.42;;;20.23;;
43990;SDS011;29654;50.784;20.604;2024-03-06T20:35:57;23.73;;;17.92;;
43990;SDS011;29654;50.784;20.604;2024-03-06T20:41:00;21.63;;;15.55;;
43990;SDS011;29654;50.784;20.604;2024-03-06T20:46:02;21.80;;;16.13;;
43990;SDS011;29654;50.784;20.604;2024-03-06T20:51:07;23.95;;;17.05;;
43990;SDS011;29654;50.784;20.604;2024-03-06T20:56:12;23.73;;;16.52;;
43990;SDS011;29654;50.784;20.604;2024-03-06T21:01:15;24.58;;;17.55;;
43990;SDS011;29654;50.784;20.604;2024-03-06T21:06:19;25.58;;;18.85;;
43990;SDS011;29654;50.784;20.604;2024-03-06T21:11:24;23.98;;;17.08;;
43990;SDS011;29654;50.784;20.604;2024-03-06T21:16:29;24.73;;;18.23;;
43990;SDS011;29654;50.784;20.604;2024-03-06T21:21:34;24.48;;;17.13;;
43990;SDS011;29654;50.784;20.604;2024-03-06T21:26:37;23.63;;;16.20;;
43990;SDS011;29654;50.784;20.604;2024-03-06T21:31:41;21.95;;;16.83;;
43990;SDS011;29654;50.784;20.604;2024-03-06T21:36:47;24.75;;;16.92;;
43990;SDS011;29654;50.784;20.604;2024-03-06T21:41:50;24.35;;;16.70;;
43990;SDS011;29654;50.784;20.604;2024-03-06T21:46:53;23.08;;;17.02;;
43990;SDS011;29654;50.784;20.604;2024-03-06T21:51:58;23.02;;;16.73;;
43990;SDS011;29654;50.784;20.604;2024-03-06T21:57:01;22.02;;;16.10;;
43990;SDS011;29654;50.784;20.604;2024-03-06T22:02:08;22.65;;;16.65;;
43990;SDS011;29654;50.784;20.604;2024-03-06T22:07:13;21.33;;;16.30;;
43990;SDS011;29654;50.784;20.604;2024-03-06T22:12:18;27.17;;;17.25;;
43990;SDS011;29654;50.784;20.604;2024-03-06T22:17:23;22.65;;;16.17;;
43990;SDS011;29654;50.784;20.604;2024-03-06T22:22:27;27.27;;;17.45;;
43990;SDS011;29654;50.784;20.604;2024-03-06T22:27:30;23.50;;;16.27;;
43990;SDS011;29654;50.784;20.604;2024-03-06T22:32:34;23.60;;;16.83;;
43990;SDS011;29654;50.784;20.604;2024-03-06T22:37:38;22.00;;;14.75;;
43990;SDS011;29654;50.784;20.604;2024-03-06T22:42:41;21.70;;;16.33;;
43990;SDS011;29654;50.784;20.604;2024-03-06T22:47:44;21.83;;;15.35;;
43990;SDS011;29654;50.784;20.604;2024-03-06T22:52:48;21.02;;;15.88;;
43990;SDS011;29654;50.784;20.604;2024-03-06T22:57:53;19.98;;;14.77;;
43990;SDS011;29654;50.784;20.604;2024-03-06T23:03:01;18.77;;;15.57;;
43990;SDS011;29654;50.784;20.604;2024-03-06T23:08:07;19.92;;;13.80;;
43990;SDS011;29654;50.784;20.604;2024-03-06T23:13:11;19.17;;;14.60;;
43990;SDS011;29654;50.784;20.604;2024-03-06T23:18:15;16.85;;;14.15;;
43990;SDS011;29654;50.784;20.604;2024-03-06T23:23:20;17.13;;;13.65;;
43990;SDS011;29654;50.784;20.604;2024-03-06T23:28:22;18.20;;;13.98;;
43990;SDS011;29654;50.784;20.604;2024-03-06T23:33:25;20.20;;;15.07;;
43990;SDS011;29654;50.784;20.604;2024-03-06T23:38:29;17.77;;;12.50;;
43990;SDS011;29654;50.784;20.604;2024-03-06T23:43:32;16.15;;;12.65;;
43990;SDS011;29654;50.784;20.604;2024-03-06T23:48:36;17.23;;;12.48;;
43990;SDS011;29654;50.784;20.604;2024-03-06T23:53:40;17.65;;;12.90;;
43990;SDS011;29654;50.784;20.604;2024-03-06T23:58:43;16.83;;;12.30;;
